Time;durP1;ratioP1;P1;durP2;ratioP2;P2;SDS_P1;SDS_P2;PMS_P1;PMS_P2;Temp;Humidity;BMP_temperature;BMP_pressure;BME280_temperature;BME280_humidity;BME280_pressure;Samples;Min_cycle;Max_cycle;Signal;HPM_P1;HPM_P2
2023/01/06 00:00:30;;;;;;;1.13;1.03;;;;;;;11.48;100.00;100751.63;5054792;28;20454;-53
2023/01/06 00:02:57;;;;;;;0.93;0.80;;;;;;;11.38;100.00;100749.25;5054818;28;20490;-52
2023/01/06 00:05:23;;;;;;;0.87;0.87;;;;;;;11.46;100.00;100742.78;5054645;28;20451;-52
2023/01/06 00:07:51;;;;;;;2.40;1.07;;;;;;;11.56;100.00;100732.78;5054247;28;21018;-53
2023/01/06 00:10:18;;;;;;;4.53;1.17;;;;;;;11.50;100.00;100736.47;5054701;28;20451;-53
2023/01/06 00:12:46;;;;;;;0.60;0.60;;;;;;;11.52;100.00;100736.47;5054617;28;20484;-53
2023/01/06 00:15:13;;;;;;;0.60;0.60;;;;;;;11.50;100.00;100735.59;5054197;28;20530;-53
2023/01/06 00:17:40;;;;;;;1.07;0.70;;;;;;;11.56;100.00;100733.66;5053795;28;20467;-53
2023/01/06 00:20:07;;;;;;;3.47;1.20;;;;;;;11.56;100.00;100732.78;5054369;28;21038;-52
2023/01/06 00:22:34;;;;;;;9.70;2.53;;;;;;;11.61;100.00;100730.00;5054301;28;20529;-53
2023/01/06 00:25:00;;;;;;;2.40;1.93;;;;;;;11.45;100.00;100727.75;5054336;28;20451;-52
2023/01/06 00:27:26;;;;;;;2.90;1.73;;;;;;;11.53;100.00;100719.56;5054178;28;20463;-53
2023/01/06 00:29:53;;;;;;;1.33;1.17;;;;;;;11.52;100.00;100721.34;5054264;28;20446;-52
2023/01/06 00:32:23;;;;;;;1.53;1.43;;;;;;;11.51;100.00;100711.63;5054297;28;20447;-52
2023/01/06 00:34:49;;;;;;;1.60;0.87;;;;;;;11.42;100.00;100717.19;5053971;28;20447;-53
2023/01/06 00:37:16;;;;;;;0.70;0.70;;;;;;;11.35;100.00;100717.34;5053816;28;20485;-52
2023/01/06 00:39:42;;;;;;;1.40;1.30;;;;;;;11.35;100.00;100717.34;5054116;28;20447;-53
2023/01/06 00:42:08;;;;;;;1.17;0.70;;;;;;;11.24;100.00;100713.19;5054191;28;20829;-52
2023/01/06 00:44:39;;;;;;;0.93;0.73;;;;;;;11.33;100.00;100719.19;5053872;28;20490;-53
2023/01/06 00:47:10;;;;;;;1.03;1.03;;;;;;;11.32;100.00;100712.09;5053870;28;20979;-52
2023/01/06 00:49:36;;;;;;;0.83;0.70;;;;;;;11.36;100.00;100717.31;5053671;28;20498;-53
2023/01/06 00:52:03;;;;;;;0.50;0.50;;;;;;;11.52;100.00;100721.34;5053914;28;20453;-53
2023/01/06 00:54:29;;;;;;;0.70;0.63;;;;;;;11.59;100.00;100716.72;5053886;28;20813;-52
2023/01/06 00:56:56;;;;;;;1.53;1.23;;;;;;;11.62;100.00;100721.09;5053736;28;20471;-52
2023/01/06 00:59:24;;;;;;;0.60;0.50;;;;;;;11.71;100.00;100716.41;5053731;28;20443;-52
2023/01/06 01:01:53;;;;;;;3.50;0.93;;;;;;;11.69;100.00;100710.25;5053514;28;20450;-53
2023/01/06 01:04:22;;;;;;;0.50;0.40;;;;;;;11.76;100.00;100700.31;5053784;28;20543;-52
2023/01/06 01:06:49;;;;;;;0.80;0.73;;;;;;;11.78;100.00;100701.13;5053306;28;20478;-53
2023/01/06 01:09:20;;;;;;;0.40;0.30;;;;;;;11.84;100.00;100703.69;5053437;28;21007;-52
2023/01/06 01:14:34;;;;;;;0.60;0.60;;;;;;;11.86;100.00;100694.72;5053277;28;20447;-53
2023/01/06 01:17:00;;;;;;;0.50;0.40;;;;;;;11.89;100.00;100706.22;5053331;28;20478;-53
2023/01/06 01:19:27;;;;;;;0.70;0.70;;;;;;;11.88;100.00;100709.78;5053303;28;20446;-53
2023/01/06 01:21:54;;;;;;;0.30;0.20;;;;;;;11.87;100.00;100708.91;5053021;28;21002;-52
2023/01/06 01:24:21;;;;;;;0.60;0.33;;;;;;;11.87;100.00;100714.25;5053235;28;20903;-53
2023/01/06 01:26:48;;;;;;;0.50;0.50;;;;;;;11.93;100.00;100713.22;5052715;28;21078;-52
2023/01/06 01:29:16;;;;;;;1.63;0.90;;;;;;;11.98;100.00;100711.31;5052825;28;21010;-52
2023/01/06 01:31:43;;;;;;;0.50;0.30;;;;;;;11.92;100.00;100707.00;5039856;28;20450;-52
2023/01/06 01:34:11;;;;;;;0.57;0.43;;;;;;;11.79;100.00;100714.47;5053107;28;20454;-52
2023/01/06 01:36:43;;;;;;;0.60;0.50;;;;;;;11.66;100.00;100718.34;5052706;28;20481;-53
2023/01/06 01:39:11;;;;;;;0.50;0.30;;;;;;;11.60;100.00;100722.94;5052864;28;20446;-52
2023/01/06 01:41:38;;;;;;;0.60;0.53;;;;;;;11.61;100.00;100735.34;5052691;28;20981;-52
2023/01/06 01:44:42;;;;;;;0.80;0.60;;;;;;;11.67;100.00;100733.41;5052640;28;20455;-52
2023/01/06 01:47:12;;;;;;;0.40;0.40;;;;;;;11.71;100.00;100732.41;5052787;28;20473;-52
2023/01/06 01:49:41;;;;;;;0.63;0.40;;;;;;;11.75;100.00;100728.72;5039414;28;20490;-53
2023/01/06 01:52:09;;;;;;;0.57;0.57;;;;;;;11.82;100.00;100726.81;5052446;28;20823;-52
2023/01/06 01:54:38;;;;;;;0.40;0.30;;;;;;;11.98;100.00;100730.81;5052795;28;20457;-52
2023/01/06 01:57:09;;;;;;;0.40;0.30;;;;;;;12.04;100.00;100735.09;5052645;28;20477;-53
2023/01/06 01:59:37;;;;;;;0.53;0.37;;;;;;;12.19;100.00;100732.00;5052653;28;20439;-53
2023/01/06 02:02:03;;;;;;;0.30;0.20;;;;;;;12.17;100.00;100736.50;5052493;28;20482;-53
2023/01/06 02:04:35;;;;;;;0.30;0.20;;;;;;;12.34;100.00;100736.94;5052440;28;20446;-53
2023/01/06 02:07:03;;;;;;;0.40;0.20;;;;;;;12.31;100.00;100733.44;5047050;28;20855;-53
2023/01/06 02:09:35;;;;;;;0.50;0.30;;;;;;;12.34;100.00;100749.38;5052496;28;20499;-53
2023/01/06 02:12:03;;;;;;;0.40;0.30;;;;;;;12.40;100.00;100742.06;5052212;28;20824;-53
2023/01/06 02:14:29;;;;;;;0.30;0.20;;;;;;;12.60;100.00;100741.47;5052387;28;20462;-53
2023/01/06 02:17:33;;;;;;;0.40;0.30;;;;;;;12.27;100.00;100731.81;5052061;28;20983;-52
2023/01/06 02:20:33;;;;;;;0.40;0.30;;;;;;;12.19;100.00;100739.13;5052264;28;20457;-52
2023/01/06 02:23:15;;;;;;;0.50;0.20;;;;;;;12.03;100.00;100728.91;5052238;28;20526;-53
2023/01/06 02:26:28;;;;;;;0.30;0.20;;;;;;;12.04;100.00;100724.44;5052363;28;20505;-52
2023/01/06 02:29:28;;;;;;;0.40;0.30;;;;;;;12.06;100.00;100726.16;4961851;28;20490;-52
2023/01/06 02:32:09;;;;;;;0.30;0.20;;;;;;;12.01;100.00;100725.41;5052342;28;20451;-52
2023/01/06 02:34:59;;;;;;;0.40;0.30;;;;;;;11.96;100.00;100707.81;5052271;28;20442;-52
2023/01/06 02:37:50;;;;;;;0.73;0.43;;;;;;;11.82;100.00;100709.06;5051873;28;20475;-52
2023/01/06 02:40:34;;;;;;;0.40;0.30;;;;;;;11.83;100.00;100705.47;5044646;28;20443;-52
2023/01/06 02:43:39;;;;;;;0.30;0.20;;;;;;;11.77;100.00;100704.72;5056143;28;20450;-53
2023/01/06 02:46:17;;;;;;;0.50;0.30;;;;;;;11.70;100.00;100695.16;5005471;28;20474;-52
2023/01/06 02:48:55;;;;;;;2.50;0.60;;;;;;;11.68;100.00;100683.69;5056196;28;20497;-52
2023/01/06 02:51:49;;;;;;;0.40;0.30;;;;;;;11.62;100.00;100687.34;5043677;28;20446;-52
2023/01/06 02:54:41;;;;;;;0.40;0.30;;;;;;;11.57;100.00;100683.97;5055986;28;20449;-52
2023/01/06 02:57:17;;;;;;;0.30;0.20;;;;;;;11.39;100.00;100687.09;5055908;28;20470;-53
2023/01/06 03:00:01;;;;;;;0.50;0.30;;;;;;;11.38;100.00;100691.56;5056033;28;20473;-52
2023/01/06 03:02:30;;;;;;;0.30;0.20;;;;;;;11.39;100.00;100684.44;5055842;28;20453;-52
2023/01/06 03:05:00;;;;;;;0.37;0.27;;;;;;;11.40;100.00;100687.06;5055560;28;20823;-52
2023/01/06 03:07:29;;;;;;;0.80;0.40;;;;;;;11.39;100.00;100677.34;5055707;28;20484;-52
2023/01/06 03:09:59;;;;;;;0.40;0.20;;;;;;;11.41;100.00;100687.94;5055647;28;20486;-52
2023/01/06 03:12:44;;;;;;;0.40;0.30;;;;;;;11.40;100.00;100689.72;5055776;28;20443;-53
2023/01/06 03:15:11;;;;;;;0.30;0.23;;;;;;;11.55;100.00;100691.13;5055578;28;20630;-52
2023/01/06 03:17:37;;;;;;;0.50;0.20;;;;;;;11.86;100.00;100697.41;5055354;28;20971;-53
2023/01/06 03:20:04;;;;;;;0.40;0.20;;;;;;;11.74;100.00;100696.81;5055502;28;20954;-53
2023/01/06 03:22:34;;;;;;;1.00;0.50;;;;;;;11.68;100.00;100694.34;5055607;28;20451;-53
2023/01/06 03:25:00;;;;;;;0.30;0.20;;;;;;;11.66;100.00;100698.81;5055399;28;20447;-53
2023/01/06 03:27:27;;;;;;;0.30;0.20;;;;;;;11.61;100.00;100688.28;5055376;28;20925;-52
2023/01/06 03:29:54;;;;;;;0.40;0.20;;;;;;;11.54;100.00;100682.25;5055119;28;20486;-53
2023/01/06 03:32:42;;;;;;;0.30;0.20;;;;;;;11.54;100.00;100689.38;5055559;28;20443;-51
2023/01/06 03:35:27;;;;;;;0.40;0.30;;;;;;;11.55;100.00;100689.31;5055348;28;20447;-53
2023/01/06 03:38:12;;;;;;;0.30;0.20;;;;;;;11.55;100.00;100686.66;5054918;28;20478;-53
2023/01/06 03:40:52;;;;;;;0.60;0.27;;;;;;;11.55;100.00;100683.13;5055242;28;20936;-52
2023/01/06 03:43:34;;;;;;;0.30;0.20;;;;;;;11.45;100.00;100685.16;5055305;28;20453;-52
2023/01/06 03:46:33;;;;;;;0.40;0.20;;;;;;;11.37;100.00;100687.13;5055091;28;20466;-52
2023/01/06 03:49:26;;;;;;;0.40;0.30;;;;;;;11.46;100.00;100678.91;5054831;28;20953;-52
2023/01/06 03:51:57;;;;;;;0.30;0.20;;;;;;;11.52;100.00;100675.22;5055055;28;20500;-52
2023/01/06 03:54:31;;;;;;;0.33;0.20;;;;;;;11.54;100.00;100668.06;5054930;28;20443;-53
2023/01/06 03:57:03;;;;;;;0.30;0.20;;;;;;;11.54;100.00;100665.41;5054665;28;20476;-52
2023/01/06 03:59:34;;;;;;;0.40;0.30;;;;;;;11.60;100.00;100670.56;5055136;28;20442;-53
2023/01/06 04:02:04;;;;;;;0.40;0.20;;;;;;;11.52;100.00;100672.56;5054671;28;20951;-52
2023/01/06 04:04:30;;;;;;;1.43;0.30;;;;;;;11.57;100.00;100676.84;5054836;28;20458;-53
2023/01/06 04:06:57;;;;;;;0.40;0.20;;;;;;;11.53;100.00;100669.00;5054489;28;20478;-52
2023/01/06 04:09:23;;;;;;;0.30;0.30;;;;;;;11.58;100.00;100665.28;5054537;28;20487;-52
2023/01/06 04:14:35;;;;;;;0.30;0.20;;;;;;;11.51;100.00;100677.00;5054710;28;20439;-52
2023/01/06 04:17:01;;;;;;;0.30;0.20;;;;;;;11.52;100.00;100664.56;5054420;28;20921;-52
2023/01/06 04:19:28;;;;;;;0.30;0.20;;;;;;;11.48;100.00;100669.09;5054444;28;20967;-52
2023/01/06 04:21:54;;;;;;;0.30;0.20;;;;;;;11.47;100.00;100674.44;5054300;28;20455;-53
2023/01/06 04:24:20;;;;;;;4.33;0.30;;;;;;;11.56;100.00;100668.91;5054191;28;20453;-53
2023/01/06 04:26:47;;;;;;;0.40;0.30;;;;;;;11.65;100.00;100673.09;5054358;28;20471;-52
2023/01/06 04:29:13;;;;;;;0.70;0.30;;;;;;;11.59;100.00;100676.78;5054352;28;20482;-52
2023/01/06 04:31:40;;;;;;;1.60;0.30;;;;;;;11.68;100.00;100673.91;5036384;28;20975;-52
2023/01/06 04:34:06;;;;;;;1.17;0.90;;;;;;;11.65;100.00;100673.09;5054178;28;20443;-52
2023/01/06 04:36:33;;;;;;;0.30;0.20;;;;;;;11.76;100.00;100671.00;5040602;28;20474;-52
2023/01/06 04:39:00;;;;;;;0.50;0.50;;;;;;;11.80;100.00;100668.28;5054539;28;20445;-53
2023/01/06 04:41:27;;;;;;;0.30;0.20;;;;;;;11.81;100.00;100678.00;5041236;28;20458;-52
2023/01/06 04:43:53;;;;;;;0.40;0.30;;;;;;;11.64;100.00;100666.88;5054035;28;20447;-52
2023/01/06 04:46:23;;;;;;;1.37;0.20;;;;;;;11.77;100.00;100659.44;5054103;28;20994;-53
2023/01/06 04:48:49;;;;;;;0.83;0.40;;;;;;;11.67;100.00;100655.31;5053782;28;20513;-53
2023/01/06 04:51:16;;;;;;;0.50;0.40;;;;;;;11.93;100.00;100663.50;5053759;28;20450;-52
2023/01/06 04:53:42;;;;;;;0.30;0.20;;;;;;;11.70;100.00;100661.41;5053630;28;20955;-52
2023/01/06 04:56:11;;;;;;;0.30;0.20;;;;;;;11.79;100.00;100663.00;5053817;28;20566;-52
2023/01/06 04:58:38;;;;;;;0.30;0.20;;;;;;;11.67;100.00;100665.97;5053753;28;20453;-52
2023/01/06 05:01:10;;;;;;;0.40;0.30;;;;;;;11.63;100.00;100665.13;5053688;28;20454;-53
2023/01/06 05:03:38;;;;;;;0.40;0.30;;;;;;;11.68;100.00;100667.69;5052953;28;20442;-52
2023/01/06 05:06:10;;;;;;;19.93;0.50;;;;;;;11.55;100.00;100653.84;5053575;28;20470;-52
2023/01/06 05:08:38;;;;;;;0.60;0.30;;;;;;;11.53;100.00;100653.00;5053475;28;20474;-53
2023/01/06 05:11:07;;;;;;;0.40;0.30;;;;;;;11.51;100.00;100647.72;5053343;28;20982;-53
2023/01/06 05:13:35;;;;;;;4.43;1.60;;;;;;;11.49;100.00;100652.19;5053281;28;20455;-52
2023/01/06 05:16:06;;;;;;;0.40;0.30;;;;;;;11.43;100.00;100665.69;5053273;28;20479;-52
2023/01/06 05:18:33;;;;;;;4.00;0.50;;;;;;;11.44;100.00;100655.91;5053381;28;20447;-52
2023/01/06 05:21:00;;;;;;;0.40;0.30;;;;;;;11.43;100.00;100655.03;5053254;28;20829;-52
2023/01/06 05:23:26;;;;;;;1.57;0.30;;;;;;;11.39;100.00;100653.38;5053134;28;20538;-52
2023/01/06 05:25:53;;;;;;;1.07;1.00;;;;;;;11.46;100.00;100657.59;5053398;28;20541;-52
2023/01/06 05:28:20;;;;;;;0.40;0.20;;;;;;;11.55;100.00;100659.16;5053012;28;20461;-52
2023/01/06 05:30:47;;;;;;;0.40;0.20;;;;;;;11.63;100.00;100659.81;5052921;28;20573;-52
2023/01/06 05:33:14;;;;;;;0.47;0.30;;;;;;;11.63;100.00;100662.47;5053168;28;20797;-52
2023/01/06 05:35:40;;;;;;;0.40;0.30;;;;;;;11.65;100.00;100660.69;5052674;28;20951;-53
2023/01/06 05:38:06;;;;;;;1.87;0.60;;;;;;;11.49;100.00;100660.19;5053334;28;20458;-53
2023/01/06 05:40:34;;;;;;;0.30;0.20;;;;;;;11.80;100.00;100668.28;5052970;28;20469;-53
2023/01/06 05:43:00;;;;;;;0.40;0.20;;;;;;;11.82;100.00;100666.44;5039482;28;20448;-53
2023/01/06 05:45:27;;;;;;;0.30;0.20;;;;;;;11.75;100.00;100666.59;5052697;28;20948;-53
2023/01/06 05:47:53;;;;;;;0.30;0.20;;;;;;;11.83;100.00;100659.31;5039494;28;20570;-53
2023/01/06 05:50:20;;;;;;;3.03;0.50;;;;;;;11.54;100.00;100658.28;5052845;28;20589;-53
2023/01/06 05:52:46;;;;;;;0.40;0.20;;;;;;;11.60;100.00;100656.38;5052794;28;20543;-53
2023/01/06 05:55:13;;;;;;;0.30;0.20;;;;;;;11.25;100.00;100647.53;5052615;28;20545;-53
2023/01/06 05:57:39;;;;;;;0.33;0.20;;;;;;;11.12;100.00;100659.41;5039246;28;20471;-53
2023/01/06 06:00:07;;;;;;;0.30;0.20;;;;;;;11.24;100.00;100675.94;5052336;28;20442;-53
2023/01/06 06:02:33;;;;;;;5.33;0.40;;;;;;;11.50;100.00;100682.34;5052726;28;20573;-53
2023/01/06 06:05:00;;;;;;;0.50;0.30;;;;;;;11.45;100.00;100681.59;5052397;28;20455;-53
2023/01/06 06:07:26;;;;;;;1.17;0.40;;;;;;;11.35;100.00;100672.09;5046961;28;20478;-53
2023/01/06 06:09:52;;;;;;;0.50;0.30;;;;;;;11.01;100.00;100666.75;5052188;28;20497;-53
2023/01/06 06:12:19;;;;;;;0.40;0.30;;;;;;;10.95;100.00;100665.09;5052197;28;20861;-53
2023/01/06 06:14:45;;;;;;;0.30;0.20;;;;;;;10.89;100.00;100652.84;5051653;28;20839;-53
2023/01/06 06:17:12;;;;;;;0.40;0.20;;;;;;;10.88;100.00;100655.53;5052414;28;20467;-53
2023/01/06 06:19:38;;;;;;;8.50;0.70;;;;;;;10.93;100.00;100673.13;5052196;28;20454;-53
2023/01/06 06:22:04;;;;;;;0.30;0.20;;;;;;;11.03;100.00;100670.25;5052354;28;20454;-53
2023/01/06 06:24:31;;;;;;;0.40;0.30;;;;;;;10.89;100.00;100663.47;5052126;28;20538;-53
2023/01/06 06:26:57;;;;;;;0.47;0.30;;;;;;;10.89;100.00;100663.47;5052390;28;20498;-53
2023/01/06 06:29:24;;;;;;;0.30;0.20;;;;;;;10.95;100.00;100675.75;5051923;28;20479;-53
2023/01/06 06:31:50;;;;;;;8.27;0.50;;;;;;;11.34;100.00;100675.69;5052089;28;20975;-53
2023/01/06 06:34:17;;;;;;;0.30;0.20;;;;;;;11.38;100.00;100678.25;5052005;28;20963;-53
2023/01/06 06:36:43;;;;;;;0.30;0.20;;;;;;;11.17;100.00;100673.44;5051928;28;20482;-53
2023/01/06 06:39:09;;;;;;;0.50;0.20;;;;;;;11.02;100.00;100676.50;5052526;28;20450;-53
2023/01/06 06:41:36;;;;;;;0.50;0.30;;;;;;;11.04;100.00;100688.84;5052006;28;20552;-53
2023/01/06 06:44:02;;;;;;;0.40;0.30;;;;;;;11.28;100.00;100685.59;5052202;28;20447;-53
2023/01/06 06:46:29;;;;;;;0.43;0.30;;;;;;;11.00;100.00;100673.00;5052117;28;20915;-53
2023/01/06 06:48:56;;;;;;;1.23;0.33;;;;;;;11.06;100.00;100675.50;5051955;28;20451;-53
2023/01/06 06:51:23;;;;;;;0.60;0.30;;;;;;;10.94;100.00;100677.53;5052014;28;20487;-53
2023/01/06 06:53:50;;;;;;;0.50;0.40;;;;;;;10.95;100.00;100679.28;5051865;28;20454;-53
2023/01/06 06:56:18;;;;;;;0.30;0.20;;;;;;;11.00;100.00;100688.97;5051720;28;20524;-53
2023/01/06 06:58:45;;;;;;;0.40;0.30;;;;;;;11.02;100.00;100693.31;5052039;28;20455;-53
2023/01/06 07:01:14;;;;;;;0.70;0.40;;;;;;;11.05;100.00;100693.25;5034412;28;20442;-53
2023/01/06 07:03:41;;;;;;;0.50;0.27;;;;;;;11.21;100.00;100689.28;5034202;28;20450;-53
2023/01/06 07:06:13;;;;;;;0.50;0.40;;;;;;;11.09;100.00;100688.72;5051735;28;20471;-53
2023/01/06 07:08:44;;;;;;;1.13;0.40;;;;;;;11.27;100.00;100697.13;5051638;28;20443;-53
2023/01/06 07:11:11;;;;;;;0.60;0.40;;;;;;;11.08;100.00;100693.16;5052038;28;20520;-53
2023/01/06 07:13:37;;;;;;;0.50;0.30;;;;;;;11.16;100.00;100693.00;5051849;28;20450;-53
2023/01/06 07:16:05;;;;;;;1.90;0.30;;;;;;;11.21;100.00;100688.41;5051797;28;20485;-53
2023/01/06 07:18:31;;;;;;;0.50;0.40;;;;;;;11.42;100.00;100687.91;5051659;28;20820;-53
2023/01/06 07:20:58;;;;;;;0.47;0.47;;;;;;;11.28;100.00;100692.69;5051835;28;20566;-53
2023/01/06 07:23:24;;;;;;;0.33;0.20;;;;;;;11.27;100.00;100686.50;5051546;28;20432;-53
2023/01/06 07:25:52;;;;;;;0.60;0.30;;;;;;;11.27;100.00;100701.59;5053468;28;20454;-53
2023/01/06 07:28:19;;;;;;;0.40;0.30;;;;;;;11.32;100.00;100699.69;5055404;28;20443;-53
2023/01/06 07:30:45;;;;;;;1.37;0.40;;;;;;;11.33;100.00;100703.22;5055198;28;20486;-53
2023/01/06 07:33:12;;;;;;;0.70;0.70;;;;;;;11.21;100.00;100707.91;5055272;28;20447;-53
2023/01/06 07:35:38;;;;;;;1.03;0.93;;;;;;;11.35;100.00;100712.91;5055145;28;20450;-53
2023/01/06 07:38:06;;;;;;;0.40;0.40;;;;;;;11.20;100.00;100716.81;5054994;28;20464;-53
2023/01/06 07:40:33;;;;;;;0.30;0.20;;;;;;;11.37;100.00;100716.38;5055345;28;20451;-53
2023/01/06 07:43:09;;;;;;;0.83;0.70;;;;;;;11.21;100.00;100720.34;5055223;28;20455;-53
2023/01/06 07:45:35;;;;;;;0.40;0.30;;;;;;;11.21;100.00;100726.53;5055005;28;20455;-53
2023/01/06 07:48:03;;;;;;;0.40;0.30;;;;;;;11.19;100.00;100724.84;5054973;28;20450;-53
2023/01/06 07:50:30;;;;;;;0.30;0.20;;;;;;;11.17;100.00;100719.56;5054681;28;20486;-53
2023/01/06 07:52:58;;;;;;;0.40;0.30;;;;;;;11.09;100.00;100702.88;5055191;28;20454;-53
2023/01/06 07:55:25;;;;;;;0.30;0.20;;;;;;;11.20;100.00;100713.28;5055026;28;20478;-53
2023/01/06 07:57:51;;;;;;;2.10;0.67;;;;;;;11.30;100.00;100719.25;5054813;28;20475;-53
2023/01/06 08:00:18;;;;;;;3.43;0.90;;;;;;;11.17;100.00;100710.69;5054746;28;20450;-53
2023/01/06 08:02:44;;;;;;;0.40;0.30;;;;;;;11.19;100.00;100712.41;5054720;28;20446;-53
2023/01/06 08:05:11;;;;;;;0.40;0.30;;;;;;;11.22;100.00;100714.13;5054525;28;20478;-53
2023/01/06 08:07:37;;;;;;;0.63;0.50;;;;;;;11.22;100.00;100717.66;5054595;28;20484;-53
2023/01/06 08:10:04;;;;;;;0.60;0.30;;;;;;;11.28;100.00;100706.00;5054546;28;20482;-53
2023/01/06 08:12:30;;;;;;;0.50;0.47;;;;;;;11.13;100.00;100709.91;5054644;28;20451;-54
2023/01/06 08:14:57;;;;;;;0.30;0.20;;;;;;;11.16;100.00;100704.50;5054469;28;20461;-53
2023/01/06 08:17:23;;;;;;;0.30;0.20;;;;;;;11.19;100.00;100709.75;5054363;28;20470;-53
2023/01/06 08:19:50;;;;;;;0.40;0.30;;;;;;;11.21;100.00;100705.25;5054260;28;21031;-53
2023/01/06 08:22:16;;;;;;;2.10;0.77;;;;;;;11.25;100.00;100698.09;5054601;28;20457;-53
2023/01/06 08:24:42;;;;;;;0.30;0.20;;;;;;;11.22;100.00;100709.66;5054341;28;20457;-53
2023/01/06 08:27:09;;;;;;;0.40;0.30;;;;;;;11.16;100.00;100701.84;5054263;28;20467;-53
2023/01/06 08:29:35;;;;;;;0.40;0.30;;;;;;;11.20;100.00;100706.16;5054155;28;20457;-53
2023/01/06 08:32:02;;;;;;;0.30;0.20;;;;;;;11.40;100.00;100707.47;5054099;28;20941;-53
2023/01/06 08:34:36;;;;;;;0.70;0.50;;;;;;;11.36;100.00;100700.47;5054291;28;20446;-53
2023/01/06 08:37:02;;;;;;;0.40;0.30;;;;;;;11.36;100.00;100706.66;5053115;28;20482;-53
2023/01/06 08:39:29;;;;;;;0.80;0.30;;;;;;;11.27;100.00;100704.25;5053949;28;20446;-53
2023/01/06 08:41:55;;;;;;;0.40;0.27;;;;;;;11.32;100.00;100709.44;5054004;28;20883;-53
2023/01/06 08:44:22;;;;;;;0.40;0.30;;;;;;;11.34;100.00;100712.94;5053754;28;20455;-53
2023/01/06 08:46:48;;;;;;;0.50;0.43;;;;;;;11.28;100.00;100714.84;5053979;28;20470;-53
2023/01/06 08:49:15;;;;;;;0.40;0.30;;;;;;;11.39;100.00;100706.63;5053926;28;20537;-53
2023/01/06 08:51:41;;;;;;;0.40;0.30;;;;;;;11.51;100.00;100710.72;5054143;28;20491;-53
2023/01/06 08:54:08;;;;;;;0.30;0.23;;;;;;;11.63;100.00;100709.53;5053651;28;20463;-53
2023/01/06 08:56:34;;;;;;;0.30;0.20;;;;;;;11.75;100.00;100696.78;5053756;28;20559;-53
2023/01/06 08:59:03;;;;;;;0.87;0.20;;;;;;;11.42;100.00;100703.00;5053823;28;20892;-53
2023/01/06 09:01:34;;;;;;;0.60;0.60;;;;;;;11.59;100.00;100714.06;5036252;28;20451;-53
2023/01/06 09:04:04;;;;;;;0.30;0.30;;;;;;;11.61;100.00;100722.88;5053713;28;20447;-53
2023/01/06 09:06:31;;;;;;;0.33;0.20;;;;;;;11.53;100.00;100720.44;5048274;28;20475;-53
2023/01/06 09:08:57;;;;;;;0.40;0.30;;;;;;;11.52;100.00;100718.69;5053496;28;20447;-53
2023/01/06 09:11:24;;;;;;;0.30;0.20;;;;;;;11.74;100.00;100720.78;5053702;28;20487;-54
2023/01/06 09:13:51;;;;;;;0.30;0.20;;;;;;;12.01;100.00;100727.19;5040237;28;20453;-53
2023/01/06 09:16:19;;;;;;;0.30;0.20;;;;;;;11.84;100.00;100717.88;5053520;28;20473;-53
2023/01/06 09:18:50;;;;;;;0.47;0.30;;;;;;;11.58;100.00;100725.63;5053256;28;20451;-53
2023/01/06 09:21:21;;;;;;;0.30;0.20;;;;;;;11.78;100.00;100728.63;5053314;28;20501;-53
2023/01/06 09:23:48;;;;;;;3.10;0.60;;;;;;;11.86;100.00;100725.81;5035664;28;20449;-53
2023/01/06 09:26:16;;;;;;;0.80;0.30;;;;;;;12.00;100.00;100736.09;5052932;28;20470;-53
2023/01/06 09:28:42;;;;;;;0.40;0.30;;;;;;;11.92;100.00;100743.41;5053480;28;20451;-53
2023/01/06 09:31:09;;;;;;;0.30;0.20;;;;;;;11.76;100.00;100754.44;5053243;28;20577;-53
2023/01/06 09:33:36;;;;;;;0.30;0.20;;;;;;;11.77;100.00;100753.53;5053207;28;20458;-53
2023/01/06 09:36:03;;;;;;;1.27;0.73;;;;;;;11.62;100.00;100753.06;5052911;28;20817;-53
2023/01/06 09:38:29;;;;;;;0.40;0.20;;;;;;;11.73;100.00;100751.00;5053288;28;20461;-53
2023/01/06 09:40:58;;;;;;;0.63;0.50;;;;;;;11.74;100.00;100750.94;5052759;28;21086;-53
2023/01/06 09:43:50;;;;;;;0.50;0.30;;;;;;;12.01;100.00;100753.84;5053059;28;20876;-53
2023/01/06 09:46:21;;;;;;;0.50;0.40;;;;;;;11.92;100.00;100751.41;5052721;28;20983;-53
2023/01/06 09:49:19;;;;;;;4.90;0.80;;;;;;;11.95;100.00;100748.69;5052420;28;20811;-53
2023/01/06 09:51:45;;;;;;;0.50;0.30;;;;;;;11.90;100.00;100745.25;5052918;28;20501;-53
2023/01/06 09:54:21;;;;;;;0.50;0.30;;;;;;;12.00;100.00;100752.97;5052793;28;20829;-53
2023/01/06 09:56:57;;;;;;;0.30;0.20;;;;;;;11.98;99.71;100753.94;5052604;28;21009;-53
2023/01/06 09:59:30;;;;;;;2.10;0.33;;;;;;;11.92;100.00;100754.94;5040537;28;20450;-53
2023/01/06 10:01:59;;;;;;;0.30;0.20;;;;;;;12.13;100.00;100761.50;5052707;28;20445;-53
2023/01/06 10:04:28;;;;;;;4.57;0.60;;;;;;;12.11;99.95;100750.88;5052683;28;20450;-53
2023/01/06 10:07:14;;;;;;;0.50;0.30;;;;;;;12.38;100.00;100759.03;5052102;28;20873;-53
2023/01/06 10:09:48;;;;;;;0.50;0.30;;;;;;;12.44;98.48;100766.84;5052562;28;20458;-53
2023/01/06 10:12:29;;;;;;;0.40;0.30;;;;;;;12.29;99.39;100765.50;5039220;28;20525;-53
2023/01/06 10:15:04;;;;;;;0.30;0.20;;;;;;;12.41;99.68;100773.16;5052304;28;20908;-53
2023/01/06 10:17:46;;;;;;;10.23;0.60;;;;;;;12.27;98.44;100770.00;5052643;28;20488;-53
2023/01/06 10:20:29;;;;;;;0.40;0.30;;;;;;;12.44;99.59;100772.19;5052667;28;20451;-53
2023/01/06 10:23:06;;;;;;;2.87;0.50;;;;;;;12.51;98.71;100760.44;5052476;28;20446;-53
2023/01/06 10:25:35;;;;;;;0.50;0.30;;;;;;;12.37;99.21;100760.81;5052178;28;20825;-53
2023/01/06 10:28:21;;;;;;;0.50;0.40;;;;;;;12.49;98.91;100756.94;5052200;28;20497;-53
2023/01/06 10:30:51;;;;;;;0.30;0.20;;;;;;;12.52;98.72;100756.84;5052023;28;20543;-54
2023/01/06 10:33:40;;;;;;;0.50;0.37;;;;;;;12.90;97.24;100760.16;5052320;28;20451;-53
2023/01/06 10:36:12;;;;;;;0.40;0.40;;;;;;;12.77;98.39;100748.13;5052092;28;20463;-53
2023/01/06 10:39:07;;;;;;;0.50;0.30;;;;;;;12.65;96.94;100747.56;5052000;28;20454;-53
2023/01/06 10:41:52;;;;;;;0.40;0.20;;;;;;;12.65;96.62;100741.34;5036805;28;20872;-53
2023/01/06 10:44:19;;;;;;;0.40;0.30;;;;;;;12.52;97.19;100743.50;5052149;28;20933;-53
2023/01/06 10:46:48;;;;;;;3.20;0.47;;;;;;;12.66;96.61;100740.44;5051915;28;21006;-53
2023/01/06 10:49:17;;;;;;;0.50;0.37;;;;;;;12.73;96.72;100732.19;5051966;28;20451;-53
2023/01/06 10:51:53;;;;;;;0.40;0.30;;;;;;;12.81;95.82;100723.09;5051830;28;20529;-53
2023/01/06 10:54:26;;;;;;;0.37;0.23;;;;;;;12.73;96.96;100715.31;5052122;28;20442;-53
2023/01/06 10:56:59;;;;;;;0.40;0.20;;;;;;;13.02;96.31;100712.63;5052014;28;20470;-53
2023/01/06 10:59:25;;;;;;;0.80;0.60;;;;;;;12.88;96.24;100711.28;5040180;28;20435;-53
2023/01/06 11:01:57;;;;;;;0.37;0.27;;;;;;;12.93;95.44;100706.69;5055319;28;20459;-53
2023/01/06 11:04:26;;;;;;;1.07;0.97;;;;;;;12.84;95.85;100717.66;5056167;28;20475;-53
2023/01/06 11:07:01;;;;;;;0.37;0.27;;;;;;;13.09;95.62;100707.09;5050507;28;20485;-53
2023/01/06 11:09:42;;;;;;;0.30;0.20;;;;;;;13.09;95.34;100712.41;5055762;28;20489;-53
2023/01/06 11:12:27;;;;;;;0.40;0.30;;;;;;;13.08;95.67;100706.22;5055627;28;20843;-53
2023/01/06 11:14:58;;;;;;;0.50;0.30;;;;;;;13.02;96.29;100693.09;5055609;28;20452;-53
2023/01/06 11:17:27;;;;;;;0.30;0.20;;;;;;;12.95;96.67;100684.38;5055769;28;20577;-53
2023/01/06 11:20:17;;;;;;;0.70;0.57;;;;;;;12.94;96.45;100681.75;5055591;28;20455;-53
2023/01/06 11:22:44;;;;;;;0.30;0.20;;;;;;;12.98;96.38;100673.59;5055545;28;20451;-53
2023/01/06 11:25:19;;;;;;;1.27;0.93;;;;;;;13.05;96.74;100668.94;5055282;28;20959;-53
2023/01/06 11:28:10;;;;;;;0.60;0.43;;;;;;;13.07;96.00;100683.13;5055206;28;20986;-53
2023/01/06 11:30:41;;;;;;;0.30;0.20;;;;;;;13.19;95.57;100677.41;5055392;28;20574;-53
2023/01/06 11:33:19;;;;;;;0.40;0.23;;;;;;;13.02;96.56;100675.28;5055277;28;20959;-53
2023/01/06 11:35:46;;;;;;;1.13;0.40;;;;;;;13.13;95.92;100674.91;5055224;28;20516;-53
2023/01/06 11:38:15;;;;;;;3.20;0.87;;;;;;;12.89;97.32;100668.59;5037979;28;20458;-53
2023/01/06 11:40:45;;;;;;;0.50;0.40;;;;;;;12.84;96.59;100665.16;5055225;28;20826;-53